| time (UTC) | temp F | wind direction | speed MPH | gust MPH | rain 1hr in | rain 24hr in | rain mn in | humidity % | barometer mb |
| 20260503234102 | 54 | 235 | 0.0 | 3.0 | 0.00 | 0.00 | 0.00 | 61 | 1010.0 |
| 20260503233603 | 55 | 223 | 0.0 | 6.0 | 0.00 | 0.00 | 0.00 | 60 | 1009.9 |
| 20260503233102 | 55 | 237 | 0.0 | 3.0 | 0.00 | 0.00 | 0.00 | 60 | 1009.8 |
| 20260503232602 | 55 | 227 | 0.0 | 6.0 | 0.00 | 0.00 | 0.00 | 60 | 1009.8 |
| 20260503231602 | 56 | 254 | 0.0 | 1.0 | 0.00 | 0.00 | 0.00 | 59 | 1009.7 |
| 20260503231103 | 57 | 229 | 0.0 | 7.0 | 0.00 | 0.00 | 0.00 | 58 | 1009.9 |
| 20260503225103 | 59 | 227 | 0.0 | 3.0 | 0.00 | 0.00 | 0.00 | 43 | 1009.3 |
| 20260503224102 | 59 | 217 | 0.0 | 6.0 | 0.00 | 0.00 | 0.00 | 43 | 1009.3 |
| 20260503223602 | 59 | 224 | 0.0 | 6.0 | 0.00 | 0.00 | 0.00 | 42 | 1009.4 |
| 20260503222602 | 59 | 236 | 0.0 | 2.0 | 0.00 | 0.00 | 0.00 | 41 | 1009.4 |
| 20260503222102 | 60 | 229 | 0.0 | 2.0 | 0.00 | 0.00 | 0.00 | 41 | 1009.4 |
| 20260503221602 | 60 | 238 | 0.0 | 5.0 | 0.00 | 0.00 | 0.00 | 44 | 1009.5 |
| 20260503221102 | 60 | 236 | 0.0 | 3.0 | 0.00 | 0.00 | 0.00 | 43 | 1009.4 |
| 20260503220602 | 60 | 240 | 0.0 | 2.0 | 0.00 | 0.00 | 0.00 | 43 | 1009.4 |
| 20260503215603 | 60 | 224 | 0.0 | 5.0 | 0.00 | 0.00 | 0.00 | 43 | 1009.4 |
| 20260503215102 | 60 | 210 | 0.0 | 3.0 | 0.00 | 0.00 | 0.00 | 43 | 1009.4 |
| 20260503214602 | 60 | 264 | 0.0 | 2.0 | 0.00 | 0.00 | 0.00 | 42 | 1009.4 |
| 20260503214102 | 60 | 220 | 0.0 | 3.0 | 0.00 | 0.00 | 0.00 | 43 | 1009.5 |
| 20260503213602 | 60 | 220 | 1.0 | 8.0 | 0.00 | 0.00 | 0.00 | 42 | 1009.6 |
| 20260503212602 | 60 | 227 | 1.0 | 3.0 | 0.00 | 0.00 | 0.00 | 41 | 1009.7 |
| 20260503212102 | 60 | 241 | 2.0 | 9.0 | 0.00 | 0.00 | 0.00 | 41 | 1009.6 |
| 20260503211102 | 60 | 246 | 1.0 | 6.0 | 0.00 | 0.00 | 0.00 | 41 | 1009.8 |
| 20260503210603 | 61 | 231 | 2.0 | 12.0 | 0.00 | 0.00 | 0.00 | 41 | 1009.8 |
| 20260503205602 | 61 | 247 | 1.0 | 7.0 | 0.00 | 0.00 | 0.00 | 41 | 1009.7 |
| 20260503204103 | 60 | 226 | 0.0 | 5.0 | 0.00 | 0.00 | 0.00 | 42 | 1010.0 |
| 20260503203602 | 61 | 238 | 1.0 | 8.0 | 0.00 | 0.00 | 0.00 | 40 | 1010.0 |
| 20260503203103 | 61 | 242 | 0.0 | 12.0 | 0.00 | 0.00 | 0.00 | 42 | 1010.0 |
| 20260503202602 | 61 | 239 | 0.0 | 2.0 | 0.00 | 0.00 | 0.00 | 41 | 1010.1 |
| 20260503202102 | 61 | 227 | 0.0 | 6.0 | 0.00 | 0.00 | 0.00 | 40 | 1010.1 |
| 20260503201102 | 61 | 248 | 0.0 | 1.0 | 0.00 | 0.00 | 0.00 | 40 | 1010.1 |
| 20260503200602 | 61 | 216 | 0.0 | 2.0 | 0.00 | 0.00 | 0.00 | 40 | 1010.2 |
| 20260503195602 | 61 | 234 | 0.0 | 10.0 | 0.00 | 0.00 | 0.00 | 40 | 1010.4 |
| 20260503195102 | 61 | 227 | 0.0 | 1.0 | 0.00 | 0.00 | 0.00 | 39 | 1010.4 |
| 20260503194602 | 61 | 241 | 0.0 | 1.0 | 0.00 | 0.00 | 0.00 | 40 | 1010.4 |
| 20260503194103 | 61 | 235 | 0.0 | 0.0 | 0.00 | 0.00 | 0.00 | 41 | 1010.5 |
| 20260503193602 | 61 | 228 | 0.0 | 2.0 | 0.00 | 0.00 | 0.00 | 40 | 1010.5 |
| 20260503193103 | 61 | 280 | 0.0 | 1.0 | 0.00 | 0.00 | 0.00 | 39 | 1010.7 |
| 20260503192602 | 61 | 243 | 0.0 | 3.0 | 0.00 | 0.00 | 0.00 | 39 | 1010.7 |
| 20260503192103 | 62 | 240 | 1.0 | 6.0 | 0.00 | 0.00 | 0.00 | 39 | 1010.9 |
| 20260503191102 | 61 | 202 | 0.0 | 0.0 | 0.00 | 0.00 | 0.00 | 40 | 1011.1 |
| 20260503185603 | 62 | 241 | 0.0 | 3.0 | 0.00 | 0.00 | 0.00 | 39 | 1011.3 |
| 20260503185102 | 61 | 220 | 0.0 | 6.0 | 0.00 | 0.00 | 0.00 | 40 | 1011.3 |
| 20260503184603 | 62 | 229 | 0.0 | 3.0 | 0.00 | 0.00 | 0.00 | 37 | 1011.4 |
| 20260503184102 | 62 | 264 | 0.0 | 0.0 | 0.00 | 0.00 | 0.00 | 41 | 1011.4 |
| 20260503183603 | 62 | 262 | 0.0 | 3.0 | 0.00 | 0.00 | 0.00 | 37 | 1011.3 |
| 20260503183102 | 62 | 231 | 0.0 | 3.0 | 0.00 | 0.00 | 0.00 | 39 | 1011.4 |
| 20260503182602 | 61 | 215 | 0.0 | 1.0 | 0.00 | 0.00 | 0.00 | 41 | 1011.6 |
| 20260503181603 | 61 | 250 | 0.0 | 2.0 | 0.00 | 0.00 | 0.00 | 38 | 1011.7 |
| 20260503181102 | 62 | 254 | 0.0 | 3.0 | 0.00 | 0.00 | 0.00 | 39 | 1011.9 |
| 20260503180603 | 62 | 233 | 0.0 | 0.0 | 0.00 | 0.00 | 0.00 | 41 | 1011.7 |
| 20260503175602 | 61 | 230 | 0.0 | 1.0 | 0.00 | 0.01 | 0.00 | 41 | 1011.7 |
| 20260503174602 | 61 | 235 | 0.0 | 2.0 | 0.00 | 0.01 | 0.00 | 42 | 1011.9 |
| 20260503173602 | 61 | 214 | 0.0 | 5.0 | 0.00 | 0.01 | 0.00 | 40 | 1012.0 |
| 20260503173103 | 61 | 258 | 0.0 | 0.0 | 0.00 | 0.01 | 0.00 | 41 | 1012.0 |
| 20260503172602 | 60 | 225 | 0.0 | 2.0 | 0.00 | 0.01 | 0.00 | 43 | 1012.1 |
| 20260503171602 | 60 | 272 | 0.0 | 2.0 | 0.00 | 0.01 | 0.00 | 41 | 1012.2 |
| 20260503171103 | 61 | 249 | 0.0 | 2.0 | 0.00 | 0.01 | 0.00 | 40 | 1012.3 |
| 20260503170602 | 60 | 231 | 0.0 | 1.0 | 0.00 | 0.01 | 0.00 | 41 | 1012.4 |
| 20260503150603 | 55 | 270 | 0.0 | 0.0 | 0.00 | 0.02 | 0.00 | 53 | 1013.7 |
| 20260503131103 | 48 | 229 | 0.0 | 2.0 | 0.00 | 0.02 | 0.00 | 62 | 1013.9 |
| 20260503130603 | 47 | 205 | 0.0 | 3.0 | 0.00 | 0.02 | 0.00 | 63 | 1014.0 |
| 20260503130103 | 47 | 222 | 1.0 | 5.0 | 0.00 | 0.02 | 0.00 | 63 | 1014.0 |
| 20260503110603 | 36 | 206 | 0.0 | 0.0 | 0.00 | 0.02 | 0.00 | 83 | 1013.8 |
| 20260503081603 | 37 | 217 | 0.0 | 0.0 | 0.00 | 0.02 | 0.00 | 81 | 1013.8 |
| 20260503081103 | 37 | 222 | 0.0 | 0.0 | 0.00 | 0.02 | 0.00 | 81 | 1013.8 |
| 20260503080605 | 37 | 222 | 0.0 | 0.0 | 0.00 | 0.02 | 0.00 | 81 | 1013.7 |
| 20260503080104 | 37 | 221 | 0.0 | 0.0 | 0.00 | 0.02 | 0.00 | 80 | 1013.8 |
| 20260503072603 | 38 | 229 | 0.0 | 0.0 | 0.00 | 0.02 | 0.00 | 80 | 1014.0 |
| 20260503072104 | 38 | 229 | 0.0 | 0.0 | 0.00 | 0.02 | 0.00 | 79 | 1014.0 |
| 20260503071603 | 38 | 230 | 0.0 | 0.0 | 0.00 | 0.02 | 0.00 | 79 | 1014.0 |
| 20260503071103 | 38 | 230 | 0.0 | 0.0 | 0.00 | 0.02 | 0.00 | 79 | 1013.9 |
| 20260503070104 | 38 | 230 | 0.0 | 0.0 | 0.00 | 0.02 | 0.00 | 79 | 1013.9 |
| 20260503060105 | 40 | 230 | 0.0 | 0.0 | 0.00 | 0.02 | 0.00 | 76 | 1014.3 |
| 20260503055103 | 40 | 230 | 0.0 | 0.0 | 0.00 | 0.02 | 0.00 | 76 | 1014.2 |
| 20260503053103 | 40 | 230 | 0.0 | 0.0 | 0.00 | 0.02 | 0.00 | 76 | 1014.3 |
| 20260503052604 | 41 | 230 | 0.0 | 0.0 | 0.00 | 0.02 | 0.00 | 75 | 1014.3 |
| 20260503052103 | 41 | 230 | 0.0 | 0.0 | 0.00 | 0.02 | 0.00 | 75 | 1014.3 |
| 20260503051604 | 41 | 230 | 0.0 | 0.0 | 0.00 | 0.02 | 0.00 | 75 | 1014.5 |
| 20260503051103 | 41 | 230 | 0.0 | 0.0 | 0.00 | 0.02 | 0.00 | 75 | 1014.5 |
| 20260503050603 | 41 | 230 | 0.0 | 0.0 | 0.00 | 0.02 | 0.00 | 75 | 1014.4 |
| 20260503050049 | 41 | 230 | 0.0 | 0.0 | 0.00 | 0.02 | 0.00 | 74 | 1014.5 |
| 20260503045548 | 41 | 230 | 0.0 | 0.0 | 0.00 | 0.02 | 0.00 | 74 | 1014.5 |
| 20260503045049 | 42 | 230 | 0.0 | 0.0 | 0.00 | 0.02 | 0.00 | 74 | 1014.5 |
| 20260503044549 | 42 | 230 | 0.0 | 0.0 | 0.00 | 0.03 | 0.00 | 73 | 1014.5 |
| 20260503043549 | 42 | 230 | 0.0 | 0.0 | 0.00 | 0.03 | 0.00 | 73 | 1014.3 |
| 20260503043050 | 42 | 230 | 0.0 | 0.0 | 0.00 | 0.03 | 0.00 | 72 | 1014.3 |
| 20260503042549 | 42 | 230 | 0.0 | 0.0 | 0.00 | 0.03 | 0.00 | 72 | 1014.3 |
| 20260503042049 | 42 | 230 | 0.0 | 0.0 | 0.00 | 0.03 | 0.00 | 72 | 1014.4 |
| 20260503041549 | 43 | 230 | 0.0 | 0.0 | 0.00 | 0.03 | 0.00 | 72 | 1014.4 |
| 20260503040549 | 43 | 230 | 0.0 | 0.0 | 0.00 | 0.03 | 0.00 | 72 | 1014.3 |
| 20260503040049 | 43 | 230 | 0.0 | 0.0 | 0.00 | 0.03 | 0.00 | 71 | 1014.3 |
| 20260503035549 | 43 | 232 | 0.0 | 0.0 | 0.00 | 0.03 | 0.03 | 71 | 1014.4 |
| 20260503035048 | 43 | 232 | 0.0 | 0.0 | 0.00 | 0.03 | 0.03 | 71 | 1014.3 |
| 20260503034549 | 43 | 232 | 0.0 | 0.0 | 0.00 | 0.03 | 0.03 | 71 | 1014.4 |
| 20260503034049 | 43 | 232 | 0.0 | 0.0 | 0.00 | 0.03 | 0.03 | 71 | 1014.4 |
| 20260503033549 | 44 | 232 | 0.0 | 0.0 | 0.00 | 0.03 | 0.03 | 71 | 1014.4 |
| 20260503033049 | 44 | 232 | 0.0 | 0.0 | 0.00 | 0.03 | 0.03 | 71 | 1014.4 |
| 20260503032550 | 44 | 232 | 0.0 | 0.0 | 0.00 | 0.03 | 0.03 | 71 | 1014.3 |
| 20260503031549 | 44 | 232 | 0.0 | 0.0 | 0.00 | 0.03 | 0.03 | 71 | 1014.4 |
| 20260503031048 | 44 | 232 | 0.0 | 0.0 | 0.00 | 0.03 | 0.03 | 71 | 1014.5 |
| 20260503030049 | 44 | 292 | 0.0 | 0.0 | 0.00 | 0.03 | 0.03 | 70 | 1014.5 |
| 20260503025549 | 44 | 292 | 0.0 | 0.0 | 0.00 | 0.03 | 0.03 | 70 | 1014.6 |
| 20260503024549 | 44 | 292 | 0.0 | 0.0 | 0.00 | 0.03 | 0.03 | 70 | 1014.7 |
| 20260503024049 | 44 | 292 | 0.0 | 0.0 | 0.00 | 0.03 | 0.03 | 70 | 1014.7 |
| 20260503023549 | 44 | 292 | 0.0 | 0.0 | 0.00 | 0.03 | 0.03 | 70 | 1014.6 |
| 20260503023049 | 44 | 292 | 0.0 | 0.0 | 0.00 | 0.03 | 0.03 | 69 | 1014.6 |
| 20260503022049 | 44 | 292 | 0.0 | 0.0 | 0.00 | 0.03 | 0.03 | 69 | 1014.7 |
| 20260503021549 | 44 | 292 | 0.0 | 0.0 | 0.00 | 0.03 | 0.03 | 68 | 1014.7 |
| 20260503021049 | 44 | 292 | 0.0 | 0.0 | 0.00 | 0.03 | 0.03 | 67 | 1014.5 |
| 20260503020549 | 45 | 292 | 0.0 | 0.0 | 0.00 | 0.03 | 0.03 | 68 | 1014.6 |
| 20260503020049 | 45 | 292 | 0.0 | 0.0 | 0.00 | 0.03 | 0.03 | 67 | 1014.6 |
| 20260503015549 | 45 | 292 | 0.0 | 0.0 | 0.00 | 0.03 | 0.03 | 66 | 1014.6 |
| 20260503015049 | 45 | 292 | 0.0 | 0.0 | 0.00 | 0.03 | 0.03 | 66 | 1014.6 |
| 20260503014049 | 45 | 292 | 0.0 | 0.0 | 0.00 | 0.03 | 0.03 | 65 | 1014.5 |
| 20260503013049 | 45 | 292 | 0.0 | 0.0 | 0.00 | 0.03 | 0.03 | 64 | 1014.6 |
| 20260503012550 | 45 | 292 | 0.0 | 0.0 | 0.00 | 0.03 | 0.03 | 63 | 1014.6 |
| 20260503012049 | 45 | 292 | 0.0 | 0.0 | 0.00 | 0.03 | 0.03 | 62 | 1014.5 |
| 20260503011549 | 45 | 292 | 0.0 | 0.0 | 0.00 | 0.03 | 0.03 | 62 | 1014.5 |
| 20260503011050 | 45 | 292 | 0.0 | 0.0 | 0.00 | 0.03 | 0.03 | 62 | 1014.5 |
| 20260503010549 | 45 | 292 | 0.0 | 0.0 | 0.00 | 0.03 | 0.03 | 61 | 1014.5 |
| 20260503010049 | 45 | 292 | 0.0 | 0.0 | 0.00 | 0.03 | 0.03 | 60 | 1014.4 |
| 20260503005549 | 46 | 292 | 0.0 | 0.0 | 0.00 | 0.03 | 0.03 | 59 | 1014.4 |
| 20260503005049 | 46 | 292 | 0.0 | 0.0 | 0.00 | 0.03 | 0.03 | 60 | 1014.3 |
| 20260503004550 | 46 | 292 | 0.0 | 0.0 | 0.00 | 0.03 | 0.03 | 60 | 1014.3 |
| 20260503003049 | 46 | 292 | 0.0 | 0.0 | 0.00 | 0.03 | 0.03 | 57 | 1014.3 |
| 20260503002549 | 46 | 292 | 0.0 | 0.0 | 0.00 | 0.04 | 0.03 | 56 | 1014.2 |
| 20260503002049 | 46 | 292 | 0.0 | 0.0 | 0.00 | 0.04 | 0.03 | 58 | 1014.2 |
| 20260503001549 | 46 | 292 | 0.0 | 0.0 | 0.00 | 0.04 | 0.03 | 57 | 1014.2 |
| 20260503001050 | 46 | 292 | 0.0 | 0.0 | 0.00 | 0.04 | 0.03 | 56 | 1014.1 |
| 20260503000549 | 46 | 292 | 0.0 | 0.0 | 0.00 | 0.04 | 0.03 | 55 | 1014.2 |
| 20260503000049 | 46 | 292 | 0.0 | 0.0 | 0.00 | 0.04 | 0.03 | 55 | 1014.2 |
| 20260502235549 | 46 | 292 | 0.0 | 0.0 | 0.00 | 0.04 | 0.03 | 57 | 1014.1 |
| 20260502235049 | 46 | 292 | 0.0 | 0.0 | 0.00 | 0.04 | 0.03 | 53 | 1014.2 |
| 20260502234549 | 46 | 292 | 0.0 | 0.0 | 0.00 | 0.04 | 0.03 | 53 | 1014.2 |